• Join FlightAware (Why Join?)
  • Login
  • US Flag 
12:00PM EST


 

Airport Tracker/Info


-or-


 

Live Flight TrackerFlight Track Log ✈ BJS444 ✈ 30-Apr-2013 ✈ KYIP - KTEB

Flight Track Log - Related Links

Times and Time Zones

All times are in EDT time to prevent confusion due to time zone crossing. See the BJS444 flight status page for this flight to view local times or setup timezone preferences in your user account.

Time Position Orientation Groundspeed Altitude Reporting Facility
EDT Latitude Longitude Course Direction KTS MPH feet Rate Location/Type
09:11PM 42.2239 -83.5469 76° East 160 184 1,800  Level Cleveland Center
09:12PM 42.1914 -83.6017 231° Southwest 185 213 3,600 2,460 Climbing Cleveland Center
09:13PM 42.1386 -83.6214 195° South 206 237 7,000 2,940 Climbing Cleveland Center
09:14PM 42.1092 -83.5528 120° Southeast 214 246 9,800 3,000 Climbing Cleveland Center
09:15PM 42.1392 -83.4367 71° East 239 275 13,000 3,780 Climbing Cleveland Center
09:16PM 42.1714 -83.3064 72° East 341 392 17,400 4,260 Climbing Cleveland Center
09:17PM 42.3395 -82.5998 76° East  Level FlightAware Approximate
09:17PM 42.2039 -83.1706 72° East 361 415 21,600  Level Cleveland Center
09:18PM 42.2383 -83.0203 73° East 388 447 22,800 2,160 Climbing Cleveland Center
09:19PM 42.2750 -82.8675 72° East 406 467 26,000 3,000 Climbing Cleveland Center
09:20PM 42.3092 -82.7169 73° East 417 480 28,800 2,580 Climbing Cleveland Center
09:21PM 42.3431 -82.5608 74° East 417 480 31,200 1,860 Climbing Cleveland Center
09:22PM 42.3647 -82.3956 80° East 424 488 32,600 1,560 Climbing Cleveland Center
09:23PM 42.3589 -82.2242 93° East 438 504 34,400 1,320 Climbing Cleveland Center
09:24PM 42.3447 -82.0383 96° East 448 516 35,300 780 Climbing Cleveland Center
09:25PM 42.2925 -81.8744 113° Southeast 454 522 36,000 600 Climbing Cleveland Center
09:26PM 42.2481 -81.7361 113° Southeast 454 522 36,600 1,500 Climbing Cleveland Center
09:27PM 42.2308 -81.5758 98° East 437 503 39,100 2,040 Climbing Cleveland Center
09:28PM 42.2194 -81.4269 96° East 412 474 40,700 900 Climbing Cleveland Center
09:29PM 42.2081 -81.2756 96° East 406 467 41,000 120 Climbing Cleveland Center
09:30PM 42.1944 -81.1044 96° East 433 498 41,000  Level Cleveland Center
09:31PM 42.1783 -80.9222 97° East 447 514 41,000  Level Cleveland Center
09:32PM 42.1600 -80.7483 98° East 458 527 41,000  Level Cleveland Center
09:33PM 42.1456 -80.5775 96° East 463 533 41,000  Level Cleveland Center
09:34PM 42.1308 -80.4067 97° East 462 532 41,000  Level Cleveland Center
09:35PM 42.1136 -80.2389 98° East 462 532 41,000  Level Cleveland Center
09:36PM 42.0983 -80.0628 97° East 462 532 41,000  Level Cleveland Center
09:37PM 42.0831 -79.8978 97° East 457 526 41,000  Level Cleveland Center
09:38PM 42.0653 -79.7272 98° East 457 526 41,000  Level Cleveland Center
09:39PM 42.0492 -79.5569 97° East 457 526 41,000  Level Cleveland Center
09:40PM 42.0331 -79.3867 97° East 457 526 41,000  Level Cleveland Center
09:41PM 42.0144 -79.2136 98° East 462 532 41,000  Level Cleveland Center
09:42PM 41.9956 -79.0381 98° East 467 537 41,000  Level Cleveland Center
09:43PM 41.9764 -78.8625 98° East 467 537 41,000  Level Cleveland Center
09:44PM 41.9589 -78.6872 98° East 472 543 41,000  Level Cleveland Center
09:45PM 41.9414 -78.5147 98° East 472 543 41,000  Level Cleveland Center
09:46PM 41.9194 -78.3394 99° East 472 543 41,000 -900 Level Cleveland Center
09:47PM 41.8992 -78.1700 99° East 465 535 39,200 -2,040 Descending Cleveland Center
09:49PM 41.8667 -77.8817 99° East 438 504 35,100 -1,440 Descending New York Center
09:50PM 41.8286 -77.7161 107° East 438 504 35,000 -60 Descending New York Center
09:51PM 41.7856 -77.5586 110° East 450 518 35,000  Level New York Center
09:52PM 41.7450 -77.3958 108° East 455 524 35,000 -720 Level New York Center
09:53PM 41.7014 -77.2389 110° East 460 529 33,600 -1,680 Descending New York Center
09:54PM 41.6561 -77.0733 110° East 460 529 31,700 -1,920 Descending New York Center
09:55PM 41.6128 -76.9083 109° East 465 535 29,700 -2,040 Descending New York Center
09:56PM 41.5672 -76.7406 110° East 465 535 27,700 -2,100 Descending New York Center
09:57PM 41.5175 -76.5642 111° Southeast 465 535 25,600 -1,800 Descending New York Center
09:58PM 41.4733 -76.4000 110° East 465 535 24,100 -840 Descending New York Center
09:59PM 41.4311 -76.2331 109° East 465 535 24,000 -660 Descending New York Center
10:00PM 41.3819 -76.0797 113° Southeast 459 528 22,800 -1,680 Descending New York Center
10:01PM 41.3461 -75.9442 109° East 452 520 20,700 -2,520 Descending New York Center
10:02PM 41.2969 -75.7803 112° Southeast 438 504 17,800 -2,580 Descending New York Center
10:03PM 41.2569 -75.6422 111° Southeast 422 486 15,600 -2,160 Descending New York Center
10:04PM 41.2125 -75.5092 114° Southeast 401 461 13,600 -1,920 Descending New York Center
10:05PM 41.1750 -75.3992 114° Southeast 376 433 11,900 -1,680 Descending New York Center
10:06PM 41.1397 -75.2892 113° Southeast 344 396 10,200 -1,920 Descending New York Center
10:07PM 41.1042 -75.1850 114° Southeast 291 335 8,000 -1,680 Descending New York Center
10:08PM 41.0742 -75.0950 114° Southeast 270 311 6,900 -1,020 Descending New York Center
10:09PM 41.0461 -75.0078 113° Southeast 263 303 6,100 -480 Descending New York Center
10:10PM 41.0200 -74.9183 111° Southeast 263 303 6,000 -300 Descending New York Center
10:12PM 40.9654 -74.7745 101° East  Level FlightAware Approximate
10:12PM 40.9994 -74.7272 101° East 258 297 5,200  Level New York Center
10:13PM 40.9961 -74.6419 93° East 253 291 5,000 -240 Descending New York Center
10:14PM 41.0033 -74.5489 84° East 248 285 4,800 -540 Descending New York Center
10:15PM 41.0081 -74.4611 86° East 243 280 4,000 -660 Descending New York Center
10:17PM 40.9469 -74.3054 114° Southeast  Level Estimated
10:18PM 40.9833 -74.2000 101° East 218 251 2,100  Level New York TRACON
10:19PM 40.9833 -74.1167 90° East 195 224 2,000 -120 Descending New York TRACON
10:20PM 40.9667 -74.0833 124° Southeast 171 197 1,900 -300 Descending New York TRACON
10:21PM 40.9167 -74.0500 153° Southeast 146 168 1,400 -600 Descending New York TRACON
10:22PM 40.8833 -74.0500 180° South 125 144 700 -720 Descending New York TRACON
10:24PM 40.8501 -74.0608 101° East  Level Estimated
10:24PM 40.8500 -74.0500 159° South  Level FlightAware Approximate
10:31PM 40.8501 -74.0608 159° South  Level Estimated
10:32PM 40.8501 -74.0608 159° South  Level Estimated